Torino, Italy

6:09 AM CEST on September 03, 2014 (GMT +0200)
Caselle | Change Station
CLOSE
Current Station
Airport
Location: Torino,
Elevation: 942 ft
Nearby Weather Stations

Elev 942 ft 45.20 °N, 7.65 °E | Updated 19 minutes ago

Clear
Clear
57 °F
Feels Like 57 °F
N
2
Wind Variable Wind from Variable

Today
High -- | Low -- °F
--% Chance of Precip.
Yesterday
High -- | Low -- °F
Precip. -- in
6:53 AM 8:03 PM
First Quarter, 58% visible
Pressure 29.95 in
Visibility -9999.0 miles
Clouds
Dew Point 48 °F
Humidity 72%
Rainfall 0.00 in
Snow Depth Not available.
UV Not available.
Pollen Not available.
Air Quality Not available.
Flu Activity Not available.
METAR LIMF 030350Z VRB02KT CAVOK 14/09 Q1014

More Conditions Fewer Conditions

Pressure 29.95 in
Visibility -9999.0 miles
Clouds
Dew Point 48 °F
Humidity 72%
Rainfall 0.00 in
Snow Depth Not available.
UV Not available.
Pollen Not available.
Air Quality Not available.
Flu Activity Not available.
METAR LIMF 030350Z VRB02KT CAVOK 14/09 Q1014

More Conditions Fewer Conditions

10-Day Weather Forecast

Almanac

Astronomy

Sep. 03, 2014 Rise Set
Actual Time 6:53 AM CEST 8:03 PM CEST
Civil Twilight 6:22 AM CEST 8:33 PM CEST
Nautical Twilight 5:46 AM CEST 9:09 PM CEST
Astronomical Twilight 5:07 AM CEST 9:48 PM CEST
Moon 3:38 PM CEST 12:24 AM CEST
Length of Visible Light 14h 10m
Length of Day
13h 10m
Tomorrow will be 3m 3s shorter.
First Quarter, 58% of the Moon is Illuminated
Today
First Quarter
Sep 8
Full
Sep 15
Last Quarter
Sep 24
New
Oct 1
First Quarter

Yesterday's Extremes

Country Highs Country Lows

Community

WunderPhotos

Upload Photos

1,749,866 photos uploaded!

Nearby

Snow Depth

Not available.

Earthquake Activity

City Distance Mag. Time & Date
No recent earthquake activity has been reported nearby.
Minimum magnitude displayed is 2.5.

Coastal Water Temperatures

Place Temperature
No Stations Reporting

Nearby Weather Stations